sensor_id;sensor_type;location;lat;lon;timestamp;P1;durP1;ratioP1;P2;durP2;ratioP2
40793;SDS011;26502;51.886;15.604;2023-06-22T00:04:20;10.60;;;9.60;;
40793;SDS011;26502;51.886;15.604;2023-06-22T00:09:25;14.60;;;9.40;;
40793;SDS011;26502;51.886;15.604;2023-06-22T00:14:31;10.50;;;9.50;;
40793;SDS011;26502;51.886;15.604;2023-06-22T00:19:37;11.00;;;9.90;;
40793;SDS011;26502;51.886;15.604;2023-06-22T00:24:43;10.80;;;9.90;;
40793;SDS011;26502;51.886;15.604;2023-06-22T00:29:48;11.70;;;10.60;;
40793;SDS011;26502;51.886;15.604;2023-06-22T00:34:54;12.00;;;10.90;;
40793;SDS011;26502;51.886;15.604;2023-06-22T00:40:00;12.10;;;11.00;;
40793;SDS011;26502;51.886;15.604;2023-06-22T00:45:07;12.00;;;10.80;;
40793;SDS011;26502;51.886;15.604;2023-06-22T00:50:14;12.50;;;11.20;;
40793;SDS011;26502;51.886;15.604;2023-06-22T00:55:25;12.70;;;11.50;;
40793;SDS011;26502;51.886;15.604;2023-06-22T01:00:31;12.60;;;11.30;;
40793;SDS011;26502;51.886;15.604;2023-06-22T01:05:37;13.10;;;11.90;;
40793;SDS011;26502;51.886;15.604;2023-06-22T01:10:44;12.90;;;11.70;;
40793;SDS011;26502;51.886;15.604;2023-06-22T01:15:55;13.70;;;12.30;;
40793;SDS011;26502;51.886;15.604;2023-06-22T01:21:05;13.40;;;12.30;;
40793;SDS011;26502;51.886;15.604;2023-06-22T01:26:15;13.20;;;12.10;;
40793;SDS011;26502;51.886;15.604;2023-06-22T01:31:26;12.80;;;11.60;;
40793;SDS011;26502;51.886;15.604;2023-06-22T01:36:33;14.00;;;12.00;;
40793;SDS011;26502;51.886;15.604;2023-06-22T01:41:39;12.50;;;11.40;;
40793;SDS011;26502;51.886;15.604;2023-06-22T01:46:47;12.90;;;11.80;;
40793;SDS011;26502;51.886;15.604;2023-06-22T01:51:54;12.90;;;11.50;;
40793;SDS011;26502;51.886;15.604;2023-06-22T01:57:00;14.20;;;12.50;;
40793;SDS011;26502;51.886;15.604;2023-06-22T02:02:06;13.60;;;12.30;;
40793;SDS011;26502;51.886;15.604;2023-06-22T02:12:21;12.70;;;11.50;;
40793;SDS011;26502;51.886;15.604;2023-06-22T02:17:30;12.50;;;11.20;;
40793;SDS011;26502;51.886;15.604;2023-06-22T02:22:37;12.10;;;11.10;;
40793;SDS011;26502;51.886;15.604;2023-06-22T02:27:43;11.80;;;10.80;;
40793;SDS011;26502;51.886;15.604;2023-06-22T02:32:49;11.60;;;10.40;;
40793;SDS011;26502;51.886;15.604;2023-06-22T02:38:02;13.20;;;11.60;;
40793;SDS011;26502;51.886;15.604;2023-06-22T02:43:08;12.40;;;11.30;;
40793;SDS011;26502;51.886;15.604;2023-06-22T02:48:14;12.80;;;11.60;;
40793;SDS011;26502;51.886;15.604;2023-06-22T02:53:20;11.60;;;10.60;;
40793;SDS011;26502;51.886;15.604;2023-06-22T02:58:26;12.00;;;10.80;;
40793;SDS011;26502;51.886;15.604;2023-06-22T04:30:37;11.30;;;10.20;;
40793;SDS011;26502;51.886;15.604;2023-06-22T04:35:49;11.00;;;10.00;;
40793;SDS011;26502;51.886;15.604;2023-06-22T04:40:54;11.80;;;10.60;;
40793;SDS011;26502;51.886;15.604;2023-06-22T04:46:00;13.20;;;10.70;;
40793;SDS011;26502;51.886;15.604;2023-06-22T04:51:07;10.90;;;9.90;;
40793;SDS011;26502;51.886;15.604;2023-06-22T04:56:13;11.40;;;10.30;;
40793;SDS011;26502;51.886;15.604;2023-06-22T05:01:20;11.10;;;9.80;;
40793;SDS011;26502;51.886;15.604;2023-06-22T05:06:26;10.90;;;9.80;;
40793;SDS011;26502;51.886;15.604;2023-06-22T05:11:32;10.20;;;9.20;;
40793;SDS011;26502;51.886;15.604;2023-06-22T05:16:38;10.20;;;9.30;;
40793;SDS011;26502;51.886;15.604;2023-06-22T05:21:45;11.50;;;9.30;;
40793;SDS011;26502;51.886;15.604;2023-06-22T05:26:50;9.60;;;8.10;;
40793;SDS011;26502;51.886;15.604;2023-06-22T05:31:56;9.50;;;8.50;;
40793;SDS011;26502;51.886;15.604;2023-06-22T05:37:02;9.80;;;8.80;;
40793;SDS011;26502;51.886;15.604;2023-06-22T05:42:09;8.90;;;8.10;;
40793;SDS011;26502;51.886;15.604;2023-06-22T05:47:15;10.30;;;8.40;;
40793;SDS011;26502;51.886;15.604;2023-06-22T05:52:20;8.90;;;7.70;;
40793;SDS011;26502;51.886;15.604;2023-06-22T05:57:26;9.30;;;8.40;;
40793;SDS011;26502;51.886;15.604;2023-06-22T06:02:32;9.00;;;8.10;;
40793;SDS011;26502;51.886;15.604;2023-06-22T06:07:38;10.70;;;8.10;;
40793;SDS011;26502;51.886;15.604;2023-06-22T06:12:44;8.60;;;7.80;;
40793;SDS011;26502;51.886;15.604;2023-06-22T06:17:50;11.00;;;7.30;;
40793;SDS011;26502;51.886;15.604;2023-06-22T06:22:56;8.40;;;7.40;;
40793;SDS011;26502;51.886;15.604;2023-06-22T06:28:02;11.10;;;8.00;;
40793;SDS011;26502;51.886;15.604;2023-06-22T06:33:08;10.30;;;7.00;;
40793;SDS011;26502;51.886;15.604;2023-06-22T06:38:14;9.60;;;7.40;;
40793;SDS011;26502;51.886;15.604;2023-06-22T06:43:20;8.40;;;7.40;;
40793;SDS011;26502;51.886;15.604;2023-06-22T06:48:25;8.20;;;6.80;;
40793;SDS011;26502;51.886;15.604;2023-06-22T06:53:31;9.10;;;6.40;;
40793;SDS011;26502;51.886;15.604;2023-06-22T06:58:38;8.60;;;7.10;;
40793;SDS011;26502;51.886;15.604;2023-06-22T07:03:44;7.80;;;6.80;;
40793;SDS011;26502;51.886;15.604;2023-06-22T07:08:50;8.70;;;7.90;;
40793;SDS011;26502;51.886;15.604;2023-06-22T07:13:56;9.90;;;8.50;;
40793;SDS011;26502;51.886;15.604;2023-06-22T07:19:04;7.10;;;6.50;;
40793;SDS011;26502;51.886;15.604;2023-06-22T07:24:11;8.50;;;7.70;;
40793;SDS011;26502;51.886;15.604;2023-06-22T07:29:16;11.10;;;6.80;;
40793;SDS011;26502;51.886;15.604;2023-06-22T07:34:23;8.80;;;8.00;;
40793;SDS011;26502;51.886;15.604;2023-06-22T07:39:28;9.10;;;8.20;;
40793;SDS011;26502;51.886;15.604;2023-06-22T07:44:37;11.20;;;8.60;;
40793;SDS011;26502;51.886;15.604;2023-06-22T07:49:43;8.90;;;7.50;;
40793;SDS011;26502;51.886;15.604;2023-06-22T07:54:48;10.20;;;8.30;;
40793;SDS011;26502;51.886;15.604;2023-06-22T07:59:54;7.90;;;7.20;;
40793;SDS011;26502;51.886;15.604;2023-06-22T08:05:00;8.10;;;7.40;;
40793;SDS011;26502;51.886;15.604;2023-06-22T08:10:09;8.20;;;7.40;;
40793;SDS011;26502;51.886;15.604;2023-06-22T08:15:16;10.90;;;7.60;;
40793;SDS011;26502;51.886;15.604;2023-06-22T08:20:22;7.40;;;6.70;;
40793;SDS011;26502;51.886;15.604;2023-06-22T08:25:27;7.70;;;6.60;;
40793;SDS011;26502;51.886;15.604;2023-06-22T08:30:33;9.10;;;5.00;;
40793;SDS011;26502;51.886;15.604;2023-06-22T08:35:38;5.20;;;4.70;;
40793;SDS011;26502;51.886;15.604;2023-06-22T08:40:46;5.60;;;5.00;;
40793;SDS011;26502;51.886;15.604;2023-06-22T08:45:52;5.20;;;4.80;;
40793;SDS011;26502;51.886;15.604;2023-06-22T08:50:58;5.80;;;5.10;;
40793;SDS011;26502;51.886;15.604;2023-06-22T08:56:04;4.90;;;3.80;;
40793;SDS011;26502;51.886;15.604;2023-06-22T09:01:11;4.80;;;4.40;;
40793;SDS011;26502;51.886;15.604;2023-06-22T09:06:18;4.90;;;4.40;;
40793;SDS011;26502;51.886;15.604;2023-06-22T09:11:23;6.00;;;4.80;;
40793;SDS011;26502;51.886;15.604;2023-06-22T09:16:30;4.90;;;4.40;;
40793;SDS011;26502;51.886;15.604;2023-06-22T09:21:36;6.20;;;5.60;;
40793;SDS011;26502;51.886;15.604;2023-06-22T09:26:42;6.40;;;4.90;;
40793;SDS011;26502;51.886;15.604;2023-06-22T09:31:48;5.60;;;4.80;;
40793;SDS011;26502;51.886;15.604;2023-06-22T09:36:56;5.90;;;4.20;;
40793;SDS011;26502;51.886;15.604;2023-06-22T09:42:03;4.10;;;3.60;;
40793;SDS011;26502;51.886;15.604;2023-06-22T09:47:11;7.10;;;4.20;;
40793;SDS011;26502;51.886;15.604;2023-06-22T09:52:17;5.10;;;4.30;;
40793;SDS011;26502;51.886;15.604;2023-06-22T09:57:23;8.10;;;4.30;;
40793;SDS011;26502;51.886;15.604;2023-06-22T10:02:29;4.20;;;3.90;;
40793;SDS011;26502;51.886;15.604;2023-06-22T10:07:34;4.60;;;4.20;;
40793;SDS011;26502;51.886;15.604;2023-06-22T10:12:44;7.20;;;4.60;;
40793;SDS011;26502;51.886;15.604;2023-06-22T10:17:51;7.20;;;4.10;;
40793;SDS011;26502;51.886;15.604;2023-06-22T10:22:57;5.00;;;4.60;;
40793;SDS011;26502;51.886;15.604;2023-06-22T10:28:03;5.20;;;4.40;;
40793;SDS011;26502;51.886;15.604;2023-06-22T10:33:09;4.90;;;4.40;;
40793;SDS011;26502;51.886;15.604;2023-06-22T10:38:15;5.50;;;4.10;;
40793;SDS011;26502;51.886;15.604;2023-06-22T10:43:21;5.90;;;4.20;;
40793;SDS011;26502;51.886;15.604;2023-06-22T10:48:27;5.50;;;4.50;;
40793;SDS011;26502;51.886;15.604;2023-06-22T10:53:33;7.60;;;4.60;;
40793;SDS011;26502;51.886;15.604;2023-06-22T10:58:39;4.80;;;4.20;;
40793;SDS011;26502;51.886;15.604;2023-06-22T11:03:44;4.60;;;4.20;;
40793;SDS011;26502;51.886;15.604;2023-06-22T11:08:50;4.80;;;4.30;;
40793;SDS011;26502;51.886;15.604;2023-06-22T11:13:56;4.40;;;4.00;;
40793;SDS011;26502;51.886;15.604;2023-06-22T11:19:02;4.80;;;4.00;;
40793;SDS011;26502;51.886;15.604;2023-06-22T11:24:08;5.10;;;4.00;;
40793;SDS011;26502;51.886;15.604;2023-06-22T11:29:14;4.50;;;4.00;;
40793;SDS011;26502;51.886;15.604;2023-06-22T11:34:20;4.30;;;4.00;;
40793;SDS011;26502;51.886;15.604;2023-06-22T11:39:26;4.30;;;3.90;;
40793;SDS011;26502;51.886;15.604;2023-06-22T11:44:31;6.50;;;4.20;;
40793;SDS011;26502;51.886;15.604;2023-06-22T11:49:37;6.50;;;4.30;;
40793;SDS011;26502;51.886;15.604;2023-06-22T11:54:43;3.90;;;3.50;;
40793;SDS011;26502;51.886;15.604;2023-06-22T11:59:49;3.70;;;3.50;;
40793;SDS011;26502;51.886;15.604;2023-06-22T12:04:55;5.00;;;4.50;;
40793;SDS011;26502;51.886;15.604;2023-06-22T12:10:01;4.70;;;4.30;;
40793;SDS011;26502;51.886;15.604;2023-06-22T12:20:12;4.80;;;3.50;;
40793;SDS011;26502;51.886;15.604;2023-06-22T12:25:18;6.00;;;3.60;;
40793;SDS011;26502;51.886;15.604;2023-06-22T12:30:25;4.70;;;3.90;;
40793;SDS011;26502;51.886;15.604;2023-06-22T12:35:30;4.50;;;4.10;;
40793;SDS011;26502;51.886;15.604;2023-06-22T12:40:36;5.00;;;3.60;;
40793;SDS011;26502;51.886;15.604;2023-06-22T12:45:42;4.20;;;3.80;;
40793;SDS011;26502;51.886;15.604;2023-06-22T12:50:48;4.90;;;3.90;;
40793;SDS011;26502;51.886;15.604;2023-06-22T12:55:54;4.40;;;4.00;;
40793;SDS011;26502;51.886;15.604;2023-06-22T13:00:59;8.00;;;4.30;;
40793;SDS011;26502;51.886;15.604;2023-06-22T13:06:05;6.20;;;3.90;;
40793;SDS011;26502;51.886;15.604;2023-06-22T13:11:11;8.00;;;3.80;;
40793;SDS011;26502;51.886;15.604;2023-06-22T13:16:17;4.30;;;3.90;;
40793;SDS011;26502;51.886;15.604;2023-06-22T13:21:23;20.50;;;4.30;;
40793;SDS011;26502;51.886;15.604;2023-06-22T13:26:28;4.70;;;4.30;;
40793;SDS011;26502;51.886;15.604;2023-06-22T13:31:34;4.40;;;4.00;;
40793;SDS011;26502;51.886;15.604;2023-06-22T13:36:41;4.00;;;3.70;;
40793;SDS011;26502;51.886;15.604;2023-06-22T13:41:47;3.60;;;3.30;;
40793;SDS011;26502;51.886;15.604;2023-06-22T13:46:53;4.60;;;3.50;;
40793;SDS011;26502;51.886;15.604;2023-06-22T13:51:59;5.20;;;3.50;;
40793;SDS011;26502;51.886;15.604;2023-06-22T13:57:06;5.50;;;3.60;;
40793;SDS011;26502;51.886;15.604;2023-06-22T14:07:16;6.40;;;3.60;;
40793;SDS011;26502;51.886;15.604;2023-06-22T14:12:23;6.10;;;3.70;;
40793;SDS011;26502;51.886;15.604;2023-06-22T14:17:29;4.30;;;3.90;;
40793;SDS011;26502;51.886;15.604;2023-06-22T14:22:35;5.00;;;3.80;;
40793;SDS011;26502;51.886;15.604;2023-06-22T14:27:42;5.40;;;3.90;;
40793;SDS011;26502;51.886;15.604;2023-06-22T14:32:48;3.60;;;3.30;;
40793;SDS011;26502;51.886;15.604;2023-06-22T14:37:54;7.40;;;4.00;;
40793;SDS011;26502;51.886;15.604;2023-06-22T14:43:00;5.40;;;3.60;;
40793;SDS011;26502;51.886;15.604;2023-06-22T14:48:05;3.60;;;3.30;;
40793;SDS011;26502;51.886;15.604;2023-06-22T14:53:11;9.90;;;4.30;;
40793;SDS011;26502;51.886;15.604;2023-06-22T14:58:17;5.40;;;3.90;;
40793;SDS011;26502;51.886;15.604;2023-06-22T15:03:23;4.30;;;3.80;;
40793;SDS011;26502;51.886;15.604;2023-06-22T15:08:31;9.00;;;4.00;;
40793;SDS011;26502;51.886;15.604;2023-06-22T15:13:39;4.20;;;3.80;;
40793;SDS011;26502;51.886;15.604;2023-06-22T15:18:45;10.50;;;4.30;;
40793;SDS011;26502;51.886;15.604;2023-06-22T15:23:51;7.60;;;4.00;;
40793;SDS011;26502;51.886;15.604;2023-06-22T15:28:57;22.30;;;4.30;;
40793;SDS011;26502;51.886;15.604;2023-06-22T15:34:03;4.50;;;4.20;;
40793;SDS011;26502;51.886;15.604;2023-06-22T15:39:10;6.10;;;3.80;;
40793;SDS011;26502;51.886;15.604;2023-06-22T15:44:16;5.70;;;3.30;;
40793;SDS011;26502;51.886;15.604;2023-06-22T15:49:22;6.00;;;3.70;;
40793;SDS011;26502;51.886;15.604;2023-06-22T15:54:27;5.70;;;4.30;;
40793;SDS011;26502;51.886;15.604;2023-06-22T15:59:33;5.90;;;4.00;;
40793;SDS011;26502;51.886;15.604;2023-06-22T16:04:39;6.00;;;3.60;;
40793;SDS011;26502;51.886;15.604;2023-06-22T16:09:45;7.00;;;3.90;;
40793;SDS011;26502;51.886;15.604;2023-06-22T16:14:50;5.30;;;3.90;;
40793;SDS011;26502;51.886;15.604;2023-06-22T16:19:56;5.50;;;3.70;;
40793;SDS011;26502;51.886;15.604;2023-06-22T16:25:02;6.40;;;3.80;;
40793;SDS011;26502;51.886;15.604;2023-06-22T16:30:10;4.50;;;3.60;;
40793;SDS011;26502;51.886;15.604;2023-06-22T16:35:16;4.70;;;3.20;;
40793;SDS011;26502;51.886;15.604;2023-06-22T16:40:22;5.10;;;4.10;;
40793;SDS011;26502;51.886;15.604;2023-06-22T16:50:35;6.00;;;3.60;;
40793;SDS011;26502;51.886;15.604;2023-06-22T16:55:41;4.10;;;3.50;;
40793;SDS011;26502;51.886;15.604;2023-06-22T17:00:47;4.80;;;3.50;;
40793;SDS011;26502;51.886;15.604;2023-06-22T17:05:55;6.70;;;3.80;;
40793;SDS011;26502;51.886;15.604;2023-06-22T17:11:01;5.40;;;3.50;;
40793;SDS011;26502;51.886;15.604;2023-06-22T17:16:07;8.30;;;3.30;;
40793;SDS011;26502;51.886;15.604;2023-06-22T17:21:21;4.70;;;3.50;;
40793;SDS011;26502;51.886;15.604;2023-06-22T17:26:28;3.80;;;3.30;;
40793;SDS011;26502;51.886;15.604;2023-06-22T17:31:38;4.00;;;3.40;;
40793;SDS011;26502;51.886;15.604;2023-06-22T17:36:47;3.80;;;3.40;;
40793;SDS011;26502;51.886;15.604;2023-06-22T17:41:54;7.40;;;3.20;;
40793;SDS011;26502;51.886;15.604;2023-06-22T17:46:59;4.40;;;3.70;;
40793;SDS011;26502;51.886;15.604;2023-06-22T17:52:07;4.20;;;3.70;;
40793;SDS011;26502;51.886;15.604;2023-06-22T17:57:21;4.10;;;3.60;;
40793;SDS011;26502;51.886;15.604;2023-06-22T18:02:27;7.30;;;3.50;;
40793;SDS011;26502;51.886;15.604;2023-06-22T18:07:33;5.00;;;3.20;;
40793;SDS011;26502;51.886;15.604;2023-06-22T18:12:40;6.20;;;3.30;;
40793;SDS011;26502;51.886;15.604;2023-06-22T18:17:49;3.80;;;3.50;;
40793;SDS011;26502;51.886;15.604;2023-06-22T18:22:56;3.60;;;3.30;;
40793;SDS011;26502;51.886;15.604;2023-06-22T18:28:03;5.50;;;3.70;;
40793;SDS011;26502;51.886;15.604;2023-06-22T18:33:11;6.40;;;3.80;;
40793;SDS011;26502;51.886;15.604;2023-06-22T18:38:17;5.10;;;2.90;;
40793;SDS011;26502;51.886;15.604;2023-06-22T18:43:23;5.10;;;4.00;;
40793;SDS011;26502;51.886;15.604;2023-06-22T18:48:29;4.10;;;3.70;;
40793;SDS011;26502;51.886;15.604;2023-06-22T18:53:35;6.10;;;3.30;;
40793;SDS011;26502;51.886;15.604;2023-06-22T18:58:40;4.50;;;3.30;;
40793;SDS011;26502;51.886;15.604;2023-06-22T19:03:49;5.30;;;3.70;;
40793;SDS011;26502;51.886;15.604;2023-06-22T19:14:21;3.90;;;3.50;;
40793;SDS011;26502;51.886;15.604;2023-06-22T19:19:28;3.80;;;3.40;;
40793;SDS011;26502;51.886;15.604;2023-06-22T19:24:47;4.10;;;3.80;;
40793;SDS011;26502;51.886;15.604;2023-06-22T19:29:54;7.20;;;3.80;;
40793;SDS011;26502;51.886;15.604;2023-06-22T19:35:01;4.40;;;3.80;;
40793;SDS011;26502;51.886;15.604;2023-06-22T19:40:13;4.10;;;3.70;;
40793;SDS011;26502;51.886;15.604;2023-06-22T19:45:19;4.20;;;3.80;;
40793;SDS011;26502;51.886;15.604;2023-06-22T19:50:26;5.00;;;3.50;;
40793;SDS011;26502;51.886;15.604;2023-06-22T19:55:42;9.20;;;3.60;;
40793;SDS011;26502;51.886;15.604;2023-06-22T20:00:48;4.30;;;4.00;;
40793;SDS011;26502;51.886;15.604;2023-06-22T20:05:56;7.30;;;4.30;;
40793;SDS011;26502;51.886;15.604;2023-06-22T20:11:13;6.40;;;3.90;;
40793;SDS011;26502;51.886;15.604;2023-06-22T20:16:27;4.40;;;3.50;;
40793;SDS011;26502;51.886;15.604;2023-06-22T20:21:33;5.30;;;4.20;;
40793;SDS011;26502;51.886;15.604;2023-06-22T20:26:40;6.70;;;4.50;;
40793;SDS011;26502;51.886;15.604;2023-06-22T20:31:47;7.10;;;4.40;;
40793;SDS011;26502;51.886;15.604;2023-06-22T20:36:53;4.70;;;4.30;;
40793;SDS011;26502;51.886;15.604;2023-06-22T20:41:59;5.20;;;4.00;;
40793;SDS011;26502;51.886;15.604;2023-06-22T20:47:07;4.80;;;4.20;;
40793;SDS011;26502;51.886;15.604;2023-06-22T20:52:12;6.60;;;3.90;;
40793;SDS011;26502;51.886;15.604;2023-06-22T20:57:20;6.70;;;4.70;;
40793;SDS011;26502;51.886;15.604;2023-06-22T21:02:26;6.20;;;4.40;;
40793;SDS011;26502;51.886;15.604;2023-06-22T21:07:31;10.60;;;4.80;;
40793;SDS011;26502;51.886;15.604;2023-06-22T21:12:37;9.00;;;4.40;;
40793;SDS011;26502;51.886;15.604;2023-06-22T21:17:43;8.50;;;4.20;;
40793;SDS011;26502;51.886;15.604;2023-06-22T21:22:51;4.40;;;4.00;;
40793;SDS011;26502;51.886;15.604;2023-06-22T21:27:56;4.70;;;4.20;;
40793;SDS011;26502;51.886;15.604;2023-06-22T21:33:02;9.70;;;4.20;;
40793;SDS011;26502;51.886;15.604;2023-06-22T21:38:08;5.70;;;4.10;;
40793;SDS011;26502;51.886;15.604;2023-06-22T21:43:14;6.60;;;3.90;;
40793;SDS011;26502;51.886;15.604;2023-06-22T21:48:20;6.60;;;4.00;;
40793;SDS011;26502;51.886;15.604;2023-06-22T21:53:26;5.30;;;4.00;;
40793;SDS011;26502;51.886;15.604;2023-06-22T21:58:31;9.70;;;4.30;;
40793;SDS011;26502;51.886;15.604;2023-06-22T22:03:37;4.60;;;4.00;;
40793;SDS011;26502;51.886;15.604;2023-06-22T22:08:45;4.80;;;3.30;;
40793;SDS011;26502;51.886;15.604;2023-06-22T22:13:51;6.10;;;3.20;;
40793;SDS011;26502;51.886;15.604;2023-06-22T22:18:57;7.00;;;3.60;;
40793;SDS011;26502;51.886;15.604;2023-06-22T22:24:03;6.10;;;4.00;;
40793;SDS011;26502;51.886;15.604;2023-06-22T22:29:09;4.20;;;3.50;;
40793;SDS011;26502;51.886;15.604;2023-06-22T22:34:16;4.30;;;3.80;;
40793;SDS011;26502;51.886;15.604;2023-06-22T22:44:39;4.30;;;3.40;;
40793;SDS011;26502;51.886;15.604;2023-06-22T22:49:45;5.30;;;3.70;;
40793;SDS011;26502;51.886;15.604;2023-06-22T22:54:51;4.90;;;3.20;;
40793;SDS011;26502;51.886;15.604;2023-06-22T22:59:56;5.70;;;3.30;;
40793;SDS011;26502;51.886;15.604;2023-06-22T23:05:02;3.70;;;3.30;;
40793;SDS011;26502;51.886;15.604;2023-06-22T23:10:09;4.70;;;3.50;;
40793;SDS011;26502;51.886;15.604;2023-06-22T23:15:15;6.70;;;3.70;;
40793;SDS011;26502;51.886;15.604;2023-06-22T23:20:21;5.70;;;3.70;;
40793;SDS011;26502;51.886;15.604;2023-06-22T23:25:27;8.40;;;4.10;;
40793;SDS011;26502;51.886;15.604;2023-06-22T23:30:34;6.60;;;4.00;;
40793;SDS011;26502;51.886;15.604;2023-06-22T23:35:41;6.20;;;3.90;;
40793;SDS011;26502;51.886;15.604;2023-06-22T23:40:47;7.80;;;4.70;;
40793;SDS011;26502;51.886;15.604;2023-06-22T23:45:52;9.00;;;4.10;;
40793;SDS011;26502;51.886;15.604;2023-06-22T23:50:58;6.50;;;4.50;;
40793;SDS011;26502;51.886;15.604;2023-06-22T23:56:04;6.60;;;4.20;;
